TNV weather

Tabuaeran Island Airport
Tabuaeran Island, Line Islands, Kiribati

Public forecast

Using degrees Celsius for public forecast. Weather courtesy of forecast.io.

Closest aviation weather report (METAR) to Tabuaeran Island Airport

Closest report is Cassidy International Airport, 167.8 nm (310.7 km) SE. Retrieved 2020/04/03 01:00 UTC (57 minutes ago):

PLCH 030100Z 08012KT 9999 FEW020 SCT100 31/26 Q1004

Closest aviation forecast (TAF) to Tabuaeran Island Airport

Closest forecast is Cassidy International Airport, 167.8 nm (310.7 km) SE. Retrieved 2020-04-03 00:00 UTC (2 hours ago):

TAF PLCH 022302Z 0300/0324 08010KT 9999 -SHRA FEW018 SCT030 BKN040 PROB40 TEMPO 0300/0324 5000 TSRA BKN015 FEW017CB